createdAt,value
2018-07-16T00:00:27.607Z,87.40
2018-07-16T00:02:55.925Z,82.43
2018-07-16T00:05:24.256Z,80.87
2018-07-16T00:07:52.650Z,78.83
2018-07-16T00:10:20.986Z,77.97
2018-07-16T00:12:49.028Z,70.27
2018-07-16T00:15:17.346Z,75.13
2018-07-16T00:17:45.647Z,68.30
2018-07-16T00:20:14.007Z,69.80
2018-07-16T00:22:42.327Z,70.27
2018-07-16T00:25:10.680Z,64.03
2018-07-16T00:27:38.996Z,67.93
2018-07-16T00:30:07.330Z,65.97
2018-07-16T00:32:35.657Z,66.90
2018-07-16T00:35:03.994Z,65.30
2018-07-16T00:37:32.301Z,66.17
2018-07-16T00:40:00.642Z,62.90
2018-07-16T00:42:28.961Z,65.43
2018-07-16T00:44:57.251Z,62.57
2018-07-16T00:47:25.768Z,63.43
2018-07-16T00:49:54.058Z,61.97
2018-07-16T00:52:22.394Z,59.77
2018-07-16T00:54:50.844Z,60.87
2018-07-16T00:57:19.174Z,60.83
2018-07-16T00:59:47.485Z,59.40
2018-07-16T01:02:15.793Z,58.77
2018-07-16T01:04:44.164Z,63.00
2018-07-16T01:07:12.462Z,57.07
2018-07-16T01:09:40.779Z,54.83
2018-07-16T01:12:09.465Z,58.70
2018-07-16T01:14:37.866Z,58.43
2018-07-16T01:17:06.169Z,54.43
2018-07-16T01:19:34.487Z,56.23
2018-07-16T01:22:02.788Z,54.40
2018-07-16T01:24:31.121Z,54.10
2018-07-16T01:26:59.277Z,50.00
2018-07-16T01:29:27.596Z,52.20
2018-07-16T01:31:55.914Z,52.00
2018-07-16T01:34:24.198Z,49.63
2018-07-16T01:36:52.545Z,50.03
2018-07-16T01:39:20.919Z,47.27
2018-07-16T01:41:49.246Z,49.07
2018-07-16T01:44:17.585Z,49.90
2018-07-16T01:46:45.890Z,47.70
2018-07-16T01:49:14.194Z,47.87
2018-07-16T01:51:42.551Z,50.30
2018-07-16T01:54:10.858Z,47.87
2018-07-16T01:56:39.179Z,46.03
2018-07-16T01:59:07.678Z,45.03
2018-07-16T02:01:36.027Z,44.37
2018-07-16T02:04:04.395Z,43.97
2018-07-16T02:06:32.716Z,43.80
2018-07-16T02:09:01.046Z,44.77
2018-07-16T02:11:29.376Z,43.60
2018-07-16T02:13:57.683Z,40.50
2018-07-16T02:16:25.987Z,41.90
2018-07-16T02:18:54.358Z,42.10
2018-07-16T02:21:22.679Z,41.83
2018-07-16T02:23:50.978Z,39.13
2018-07-16T02:26:19.314Z,41.57
2018-07-16T02:28:47.676Z,40.23
2018-07-16T02:31:16.011Z,38.73
2018-07-16T02:33:44.308Z,38.97
2018-07-16T02:36:12.640Z,37.90
2018-07-16T02:38:40.987Z,40.17
2018-07-16T02:41:09.267Z,38.53
2018-07-16T02:43:37.626Z,35.57
2018-07-16T02:46:06.221Z,39.80
2018-07-16T02:48:34.615Z,36.13
2018-07-16T02:51:02.918Z,35.80
2018-07-16T02:53:31.223Z,36.37
2018-07-16T02:55:59.527Z,36.90
2018-07-16T02:58:27.853Z,35.87
2018-07-16T03:00:56.169Z,32.87
2018-07-16T03:03:24.471Z,34.47
2018-07-16T03:05:52.799Z,33.90
2018-07-16T03:08:21.107Z,33.27
2018-07-16T03:10:49.411Z,33.87
2018-07-16T03:13:17.762Z,33.57
2018-07-16T03:15:46.123Z,31.80
2018-07-16T03:18:14.587Z,31.37
2018-07-16T03:20:42.802Z,30.00
2018-07-16T03:23:11.139Z,31.33
2018-07-16T03:25:39.468Z,32.00
2018-07-16T03:28:07.827Z,29.13
2018-07-16T03:30:36.126Z,30.33
2018-07-16T03:33:04.462Z,28.80
2018-07-16T03:35:32.802Z,27.87
2018-07-16T03:38:01.132Z,28.43
2018-07-16T03:40:29.558Z,27.83
2018-07-16T03:42:57.886Z,29.43
2018-07-16T03:45:25.954Z,29.53
2018-07-16T03:47:54.265Z,27.83
2018-07-16T03:50:22.611Z,27.87
2018-07-16T03:52:50.922Z,25.73
2018-07-16T03:55:19.265Z,26.23
2018-07-16T03:57:47.561Z,28.63
2018-07-16T04:00:15.925Z,24.53
2018-07-16T04:02:44.261Z,25.70
2018-07-16T04:05:12.580Z,26.03
2018-07-16T04:07:40.903Z,25.20
2018-07-16T04:10:09.803Z,25.07
2018-07-16T04:12:38.303Z,24.83
2018-07-16T04:15:06.750Z,24.37
2018-07-16T04:17:35.125Z,23.47
2018-07-16T04:20:03.435Z,23.63
2018-07-16T04:22:31.739Z,23.00
2018-07-16T04:25:00.065Z,24.10
2018-07-16T04:27:28.436Z,21.53
2018-07-16T04:29:56.760Z,19.10
2018-07-16T04:32:24.834Z,22.00
2018-07-16T04:34:53.159Z,21.53
2018-07-16T04:37:21.483Z,22.03
2018-07-16T04:39:49.856Z,19.83
2018-07-16T04:42:18.167Z,20.13
2018-07-16T04:44:46.495Z,17.00
2018-07-16T04:47:14.844Z,21.70
2018-07-16T04:49:43.210Z,19.27
2018-07-16T04:52:11.550Z,18.97
2018-07-16T04:54:39.887Z,18.80
2018-07-16T04:57:08.217Z,17.20
2018-07-16T04:59:36.253Z,19.43
2018-07-16T05:02:04.588Z,15.97
2018-07-16T05:04:32.919Z,19.47
2018-07-16T05:07:01.226Z,17.97
2018-07-16T05:09:29.562Z,19.30
2018-07-16T05:11:57.855Z,18.17
2018-07-16T05:14:26.175Z,16.17
2018-07-16T05:16:54.531Z,16.37
2018-07-16T05:19:22.940Z,20.10
2018-07-16T05:21:51.279Z,19.67
2018-07-16T05:24:19.578Z,21.97
2018-07-16T05:26:47.931Z,27.07
2018-07-16T05:29:16.233Z,29.60
2018-07-16T05:31:44.635Z,32.13
2018-07-16T05:34:12.866Z,29.53
2018-07-16T05:36:41.274Z,31.30
2018-07-16T05:39:09.530Z,31.93
2018-07-16T05:41:37.845Z,31.77
2018-07-16T05:44:06.185Z,30.20
2018-07-16T05:46:34.253Z,30.77
2018-07-16T05:49:02.571Z,28.07
2018-07-16T05:51:30.887Z,26.67
2018-07-16T05:53:59.233Z,29.13
2018-07-16T05:56:27.527Z,29.97
2018-07-16T05:58:55.837Z,32.63
2018-07-16T06:01:24.147Z,27.20
2018-07-16T06:03:52.467Z,28.13
2018-07-16T06:06:20.774Z,26.10
2018-07-16T06:08:48.928Z,27.10
2018-07-16T06:11:17.178Z,25.87
2018-07-16T06:13:45.534Z,25.93
2018-07-16T06:16:13.859Z,23.23
2018-07-16T06:18:42.179Z,21.43
2018-07-16T06:21:10.563Z,28.93
2018-07-16T06:23:38.954Z,23.10
2018-07-16T06:26:07.300Z,23.00
2018-07-16T06:28:35.692Z,50.03
2018-07-16T06:31:04.107Z,22.97
2018-07-16T06:33:32.468Z,20.97
2018-07-16T06:36:00.867Z,22.93
2018-07-16T06:38:29.240Z,18.00
2018-07-16T06:40:57.827Z,18.63
2018-07-16T06:43:25.942Z,13.60
2018-07-16T06:45:54.380Z,19.40
2018-07-16T06:48:22.680Z,25.63
2018-07-16T06:50:51.468Z,48.63
2018-07-16T06:53:19.821Z,45.20
2018-07-16T06:55:48.188Z,45.70
2018-07-16T06:58:16.505Z,48.13
2018-07-16T07:00:44.808Z,30.80
2018-07-16T07:03:13.146Z,28.63
2018-07-16T07:05:41.490Z,34.77
2018-07-16T07:08:09.854Z,31.37
2018-07-16T07:10:38.159Z,13.60
2018-07-16T07:13:08.222Z,24.27
2018-07-16T07:15:36.559Z,19.37
2018-07-16T07:18:05.156Z,14.53
2018-07-16T07:20:33.484Z,10.87
2018-07-16T07:23:01.803Z,12.03
2018-07-16T07:25:30.235Z,7.20
2018-07-16T07:27:58.513Z,9.93
2018-07-16T07:30:26.942Z,6.03
2018-07-16T07:32:55.244Z,7.80
2018-07-16T07:35:23.558Z,10.67
2018-07-16T07:37:51.988Z,8.10
2018-07-16T07:40:20.311Z,5.33
2018-07-16T07:42:48.603Z,12.97
2018-07-16T07:45:16.944Z,14.07
2018-07-16T07:47:45.285Z,9.17
2018-07-16T07:50:13.644Z,34.47
2018-07-16T07:52:41.970Z,37.40
2018-07-16T07:55:10.451Z,27.07
2018-07-16T07:57:38.636Z,26.67
2018-07-16T08:00:06.738Z,19.43
2018-07-16T08:02:35.146Z,19.77
2018-07-16T08:05:03.475Z,16.97
2018-07-16T08:07:31.820Z,19.03
2018-07-16T08:10:00.194Z,17.80
2018-07-16T08:12:28.511Z,19.13
2018-07-16T08:14:56.843Z,21.73
2018-07-16T08:17:25.212Z,18.80
2018-07-16T08:19:53.536Z,20.20
2018-07-16T08:22:21.831Z,15.73
2018-07-16T08:24:50.171Z,23.20
2018-07-16T08:27:18.490Z,32.17
2018-07-16T08:29:46.880Z,22.37
2018-07-16T08:32:15.270Z,26.43
2018-07-16T08:34:43.610Z,23.90
2018-07-16T08:37:11.943Z,19.83
2018-07-16T08:39:40.261Z,21.80
2018-07-16T08:42:08.804Z,20.70
2018-07-16T08:44:37.131Z,19.43
2018-07-16T08:47:05.903Z,18.30
2018-07-16T08:49:34.280Z,16.47
2018-07-16T08:52:02.672Z,16.83
2018-07-16T08:54:31.000Z,16.60
2018-07-16T08:56:59.381Z,24.60
2018-07-16T08:59:28.004Z,17.53
2018-07-16T09:01:56.358Z,16.27
2018-07-16T09:04:24.675Z,14.30
2018-07-16T09:06:52.992Z,21.30
2018-07-16T09:09:21.302Z,17.90
2018-07-16T09:11:49.646Z,18.57
2018-07-16T09:14:17.959Z,24.40
2018-07-16T09:16:46.367Z,22.10
2018-07-16T09:19:14.715Z,20.67
2018-07-16T09:21:43.012Z,18.60
2018-07-16T09:24:11.367Z,19.93
2018-07-16T09:26:39.684Z,19.43
2018-07-16T09:29:08.200Z,20.23
2018-07-16T09:31:36.715Z,18.33
2018-07-16T09:34:05.047Z,20.77
2018-07-16T09:36:33.417Z,17.37
2018-07-16T09:39:01.769Z,17.67
2018-07-16T09:41:30.066Z,16.50
2018-07-16T09:43:58.387Z,17.43
2018-07-16T09:46:26.724Z,21.07
2018-07-16T09:48:55.189Z,17.63
2018-07-16T09:51:23.518Z,21.53
2018-07-16T09:53:51.980Z,23.77
2018-07-16T09:56:20.366Z,22.47
2018-07-16T09:58:48.669Z,20.27
2018-07-16T10:02:22.919Z,20.03
2018-07-16T10:04:51.248Z,21.47
2018-07-16T10:07:19.647Z,18.53
2018-07-16T10:09:47.946Z,21.10
2018-07-16T10:12:16.416Z,18.37
2018-07-16T10:14:44.734Z,22.20
2018-07-16T10:17:13.076Z,17.23
2018-07-16T10:19:41.414Z,18.03
2018-07-16T10:22:09.881Z,15.90
2018-07-16T10:24:38.206Z,18.27
2018-07-16T10:27:06.521Z,16.80
2018-07-16T10:29:34.936Z,15.30
2018-07-16T10:32:03.263Z,21.13
2018-07-16T10:34:31.595Z,25.70
2018-07-16T10:36:59.935Z,21.47
2018-07-16T10:39:28.249Z,24.00
2018-07-16T10:41:56.546Z,40.83
2018-07-16T10:44:24.904Z,29.33
2018-07-16T10:46:53.211Z,31.20
2018-07-16T10:49:21.514Z,28.53
2018-07-16T10:51:49.821Z,27.20
2018-07-16T10:54:18.140Z,25.00
2018-07-16T10:56:46.351Z,24.57
2018-07-16T10:59:15.069Z,22.53
2018-07-16T11:01:43.435Z,24.53
2018-07-16T11:04:12.074Z,23.93
2018-07-16T11:06:40.391Z,23.00
2018-07-16T11:09:09.047Z,25.83
2018-07-16T11:11:37.132Z,21.40
2018-07-16T11:14:05.426Z,19.90
2018-07-16T11:16:33.745Z,22.17
2018-07-16T11:19:02.048Z,20.30
2018-07-16T11:21:30.491Z,20.10
2018-07-16T11:23:58.900Z,20.90
2018-07-16T11:26:27.232Z,19.93
2018-07-16T11:28:55.621Z,18.60
2018-07-16T11:31:23.963Z,17.90
2018-07-16T11:33:52.482Z,17.63
2018-07-16T11:36:20.876Z,20.93
2018-07-16T11:38:49.210Z,18.77
2018-07-16T11:41:17.865Z,17.80
2018-07-16T11:43:46.171Z,17.27
2018-07-16T11:46:14.543Z,16.23
2018-07-16T11:48:42.852Z,16.60
2018-07-16T11:51:11.199Z,16.30
2018-07-16T11:53:39.516Z,16.03
2018-07-16T11:56:07.860Z,13.93
2018-07-16T11:58:36.187Z,15.50
2018-07-16T12:01:04.715Z,17.13
2018-07-16T12:03:33.402Z,14.77
2018-07-16T12:06:04.872Z,14.80
2018-07-16T12:08:32.935Z,16.40
2018-07-16T12:11:01.036Z,14.63
2018-07-16T12:13:29.345Z,24.47
2018-07-16T12:15:57.655Z,25.20
2018-07-16T12:18:26.165Z,23.07
2018-07-16T12:20:54.443Z,19.93
2018-07-16T12:23:22.973Z,26.80
2018-07-16T12:25:51.366Z,22.70
2018-07-16T12:28:19.735Z,23.30
2018-07-16T12:30:48.057Z,21.57
2018-07-16T12:33:16.718Z,19.10
2018-07-16T12:35:44.802Z,17.77
2018-07-16T12:38:13.183Z,32.40
2018-07-16T12:40:41.540Z,21.17
2018-07-16T12:43:09.986Z,23.93
2018-07-16T12:45:38.282Z,27.10
2018-07-16T12:48:06.681Z,33.80
2018-07-16T12:50:34.973Z,33.17
2018-07-16T12:53:03.118Z,37.30
2018-07-16T12:55:31.471Z,36.37
2018-07-16T12:57:59.823Z,36.10
2018-07-16T13:00:28.133Z,38.73
2018-07-16T13:02:56.456Z,40.73
2018-07-16T13:05:25.128Z,33.63
2018-07-16T13:07:53.466Z,31.40
2018-07-16T13:10:21.807Z,31.13
2018-07-16T13:12:50.198Z,30.80
2018-07-16T13:15:18.559Z,31.53
2018-07-16T13:17:46.860Z,27.47
2018-07-16T13:20:15.175Z,29.97
2018-07-16T13:22:43.497Z,31.57
2018-07-16T13:25:11.810Z,31.00
2018-07-16T13:27:40.131Z,29.53
2018-07-16T13:30:08.426Z,29.40
2018-07-16T13:32:37.263Z,29.00
2018-07-16T13:35:05.624Z,29.23
2018-07-16T13:37:34.043Z,33.23
2018-07-16T13:40:02.406Z,30.47
2018-07-16T13:42:30.800Z,29.13
2018-07-16T13:44:59.120Z,30.40
2018-07-16T13:47:27.775Z,32.60
2018-07-16T13:49:56.073Z,34.00
2018-07-16T13:52:24.399Z,47.00
2018-07-16T13:54:52.763Z,34.37
2018-07-16T13:57:21.079Z,37.90
2018-07-16T13:59:49.386Z,41.80
2018-07-16T14:02:17.718Z,42.30
2018-07-16T14:04:46.032Z,44.03
2018-07-16T14:07:14.364Z,39.93
2018-07-16T14:09:42.674Z,39.90
2018-07-16T14:12:11.051Z,37.40
2018-07-16T14:14:39.379Z,41.33
2018-07-16T14:17:07.707Z,37.90
2018-07-16T14:19:35.810Z,36.63
2018-07-16T14:22:04.224Z,35.30
2018-07-16T14:24:32.556Z,36.17
2018-07-16T14:27:00.884Z,36.33
2018-07-16T14:29:29.228Z,38.57
2018-07-16T14:31:57.576Z,40.57
2018-07-16T14:34:25.659Z,39.37
2018-07-16T14:36:54.099Z,35.43
2018-07-16T14:39:22.869Z,39.03
2018-07-16T14:41:51.129Z,44.60
2018-07-16T14:44:19.724Z,51.03
2018-07-16T14:46:48.057Z,49.47
2018-07-16T14:49:16.153Z,47.97
2018-07-16T14:51:44.498Z,50.70
2018-07-16T14:54:12.849Z,52.57
2018-07-16T14:56:41.178Z,48.43
2018-07-16T14:59:09.502Z,43.80
2018-07-16T15:01:37.834Z,44.90
2018-07-16T15:04:06.470Z,42.63
2018-07-16T15:06:34.767Z,43.27
2018-07-16T15:09:03.244Z,42.73
2018-07-16T15:11:31.527Z,44.37
2018-07-16T15:13:59.905Z,48.70
2018-07-16T15:16:28.142Z,46.10
2018-07-16T15:18:56.493Z,42.93
2018-07-16T15:21:24.963Z,41.17
2018-07-16T15:23:53.130Z,40.50
2018-07-16T15:26:21.571Z,40.33
2018-07-16T15:28:49.840Z,42.17
2018-07-16T15:31:18.469Z,44.17
2018-07-16T15:33:46.906Z,40.27
2018-07-16T15:36:15.595Z,40.60
2018-07-16T15:38:44.306Z,42.50
2018-07-16T15:41:12.975Z,43.13
2018-07-16T15:43:41.753Z,43.40
2018-07-16T15:46:10.055Z,45.13
2018-07-16T15:48:38.790Z,49.37
2018-07-16T15:51:07.416Z,49.07
2018-07-16T15:53:36.036Z,43.97
2018-07-16T15:56:04.355Z,48.43
2018-07-16T15:58:32.679Z,47.63
2018-07-16T16:01:01.428Z,45.17
2018-07-16T16:03:30.160Z,38.57
2018-07-16T16:05:58.802Z,42.47
2018-07-16T16:08:27.081Z,49.50
2018-07-16T16:10:55.434Z,40.07
2018-07-16T16:13:23.761Z,43.87
2018-07-16T16:15:52.183Z,48.13
2018-07-16T16:18:20.798Z,49.30
2018-07-16T16:20:49.109Z,58.00
2018-07-16T16:23:17.778Z,53.57
2018-07-16T16:25:45.977Z,59.37
2018-07-16T16:28:14.050Z,65.43
2018-07-16T16:30:42.401Z,54.43
2018-07-16T16:33:10.979Z,66.83
2018-07-16T16:35:39.315Z,64.70
2018-07-16T16:38:07.888Z,55.73
2018-07-16T16:40:36.243Z,59.77
2018-07-16T16:43:04.742Z,70.93
2018-07-16T16:45:33.079Z,65.87
2018-07-16T16:48:01.460Z,60.77
2018-07-16T16:50:29.788Z,64.50
2018-07-16T16:52:58.168Z,67.70
2018-07-16T16:55:26.443Z,58.60
2018-07-16T16:57:55.164Z,59.47
2018-07-16T17:00:23.565Z,57.00
2018-07-16T17:02:51.905Z,60.37
2018-07-16T17:05:20.261Z,57.03
2018-07-16T17:07:48.608Z,55.97
2018-07-16T17:10:16.960Z,56.90
2018-07-16T17:12:45.307Z,62.50
2018-07-16T17:15:14.022Z,63.97
2018-07-16T17:17:42.325Z,66.50
2018-07-16T17:20:10.785Z,67.70
2018-07-16T17:22:39.146Z,72.77
2018-07-16T17:25:07.487Z,72.10
2018-07-16T17:27:35.807Z,65.73
2018-07-16T17:30:04.165Z,65.87
2018-07-16T17:32:32.593Z,67.77
2018-07-16T17:35:00.951Z,64.40
2018-07-16T17:37:29.247Z,63.90
2018-07-16T17:39:57.358Z,62.70
2018-07-16T17:42:25.732Z,62.03
2018-07-16T17:44:54.052Z,64.77
2018-07-16T17:47:22.381Z,70.10
2018-07-16T17:49:50.435Z,62.10
2018-07-16T17:52:18.798Z,60.97
2018-07-16T17:54:47.151Z,59.67
2018-07-16T17:57:15.733Z,59.77
2018-07-16T17:59:44.066Z,57.10
2018-07-16T18:02:12.412Z,58.43
2018-07-16T18:04:40.833Z,56.40
2018-07-16T18:07:09.266Z,59.80
2018-07-16T18:09:37.608Z,48.93
2018-07-16T18:12:06.256Z,53.43
2018-07-16T18:14:35.819Z,48.37
2018-07-16T18:17:04.115Z,52.67
2018-07-16T18:19:32.455Z,51.73
2018-07-16T18:22:00.980Z,55.33
2018-07-16T18:24:29.351Z,49.40
2018-07-16T18:26:57.672Z,54.20
2018-07-16T18:29:26.021Z,54.33
2018-07-16T18:31:54.391Z,50.20
2018-07-16T18:34:22.727Z,50.37
2018-07-16T18:36:50.824Z,45.10
2018-07-16T18:39:19.306Z,36.57
2018-07-16T18:41:47.631Z,35.03
2018-07-16T18:44:16.153Z,42.07
2018-07-16T18:46:44.578Z,39.87
2018-07-16T18:49:12.877Z,35.37
2018-07-16T18:51:41.470Z,36.33
2018-07-16T18:54:09.844Z,38.73
2018-07-16T18:56:38.767Z,31.67
2018-07-16T18:59:07.203Z,30.63
2018-07-16T19:01:35.632Z,29.97
2018-07-16T19:04:04.063Z,35.17
2018-07-16T19:06:32.769Z,30.77
2018-07-16T19:09:00.898Z,31.27
2018-07-16T19:11:29.586Z,29.53
2018-07-16T19:13:58.304Z,28.57
2018-07-16T19:16:26.495Z,28.37
2018-07-16T19:18:55.119Z,28.37
2018-07-16T19:21:23.439Z,28.90
2018-07-16T19:23:54.539Z,29.57
2018-07-16T19:26:25.570Z,25.57
2018-07-16T19:28:55.189Z,23.47
2018-07-16T19:31:24.233Z,22.83
2018-07-16T19:33:53.072Z,23.37
2018-07-16T19:36:21.422Z,20.77
2018-07-16T19:38:50.166Z,23.67
2018-07-16T19:41:18.492Z,19.60
2018-07-16T19:43:46.871Z,19.67
2018-07-16T19:46:15.208Z,20.07
2018-07-16T19:48:43.771Z,18.20
2018-07-16T19:51:12.107Z,16.67
2018-07-16T19:53:40.412Z,16.77
2018-07-16T19:56:08.836Z,14.87
2018-07-16T19:58:37.410Z,9.93
2018-07-16T20:01:05.787Z,20.27
2018-07-16T20:03:33.995Z,11.70
2018-07-16T20:06:02.092Z,18.93
2018-07-16T20:08:30.451Z,16.17
2018-07-16T20:10:58.823Z,13.67
2018-07-16T20:13:27.179Z,12.10
2018-07-16T20:15:55.728Z,16.20
2018-07-16T20:18:24.355Z,8.03
2018-07-16T20:20:56.955Z,6.47
2018-07-16T20:23:29.211Z,14.57
2018-07-16T20:26:01.345Z,7.60
2018-07-16T20:28:29.764Z,7.73
2018-07-16T20:31:00.658Z,9.63
2018-07-16T20:33:32.891Z,9.47
2018-07-16T20:36:04.152Z,8.33
2018-07-16T20:38:36.071Z,6.60
2018-07-16T20:41:07.739Z,6.53
2018-07-16T20:43:36.105Z,6.57
2018-07-16T20:46:04.434Z,5.67
2018-07-16T20:48:32.817Z,9.97
2018-07-16T20:51:01.262Z,10.00
2018-07-16T20:53:29.679Z,6.63
2018-07-16T20:55:58.100Z,6.93
2018-07-16T20:58:26.713Z,13.30
2018-07-16T21:00:55.147Z,5.07
2018-07-16T21:03:23.509Z,6.23
2018-07-16T21:05:51.875Z,5.13
2018-07-16T21:08:20.681Z,5.27
2018-07-16T21:10:51.457Z,5.00
2018-07-16T21:13:19.984Z,4.87
2018-07-16T21:15:48.350Z,5.87
2018-07-16T21:18:16.671Z,6.33
2018-07-16T21:20:45.092Z,11.23
2018-07-16T21:23:17.765Z,11.53
2018-07-16T21:25:48.296Z,10.47
2018-07-16T21:28:21.312Z,12.47
2018-07-16T21:30:52.785Z,8.57
2018-07-16T21:33:24.060Z,6.73
2018-07-16T21:35:52.954Z,6.63
2018-07-16T21:38:21.787Z,6.77
2018-07-16T21:40:53.245Z,8.10
2018-07-16T21:43:21.660Z,6.10
2018-07-16T21:45:49.990Z,5.40
2018-07-16T21:48:18.460Z,9.67
2018-07-16T21:50:49.653Z,17.67
2018-07-16T21:53:18.215Z,15.73
2018-07-16T21:55:47.272Z,13.27
2018-07-16T21:58:15.651Z,8.97
2018-07-16T22:00:44.136Z,7.20
2018-07-16T22:03:12.442Z,7.07
2018-07-16T22:05:41.149Z,5.70
2018-07-16T22:08:09.872Z,4.73
2018-07-16T22:10:38.266Z,6.13
2018-07-16T22:13:06.762Z,4.00
2018-07-16T22:15:35.269Z,3.70
2018-07-16T22:18:04.240Z,3.77
2018-07-16T22:20:33.086Z,5.73
2018-07-16T22:23:01.754Z,4.40
2018-07-16T22:25:30.271Z,3.70
2018-07-16T22:27:58.740Z,3.30
2018-07-16T22:30:27.369Z,4.13
2018-07-16T22:32:56.132Z,10.67
2018-07-16T22:35:24.752Z,18.73
2018-07-16T22:37:53.487Z,8.17
2018-07-16T22:40:22.125Z,7.57
2018-07-16T22:42:51.051Z,7.40
2018-07-16T22:45:19.365Z,7.80
2018-07-16T22:47:47.671Z,13.70
2018-07-16T22:50:15.974Z,8.83
2018-07-16T22:52:44.066Z,11.43
2018-07-16T22:55:12.402Z,11.83
2018-07-16T22:57:40.969Z,11.43
2018-07-16T23:00:09.522Z,15.43
2018-07-16T23:02:37.871Z,15.90
2018-07-16T23:05:06.534Z,13.23
2018-07-16T23:07:34.844Z,10.90
2018-07-16T23:10:03.686Z,11.90
2018-07-16T23:12:32.011Z,9.23
2018-07-16T23:15:00.328Z,9.73
2018-07-16T23:17:28.602Z,7.90
2018-07-16T23:19:57.148Z,9.60
2018-07-16T23:22:25.632Z,17.87
2018-07-16T23:24:54.178Z,19.47
2018-07-16T23:27:22.496Z,29.93
2018-07-16T23:29:51.135Z,27.50
2018-07-16T23:32:19.962Z,18.27
2018-07-16T23:34:48.550Z,16.10
2018-07-16T23:37:17.034Z,15.93
2018-07-16T23:39:45.624Z,12.23
2018-07-16T23:42:14.135Z,11.93
2018-07-16T23:44:42.619Z,21.87
2018-07-16T23:47:10.944Z,12.80
2018-07-16T23:49:39.255Z,9.63
2018-07-16T23:52:07.601Z,21.10
2018-07-16T23:54:36.005Z,10.23
2018-07-16T23:57:04.586Z,15.20
2018-07-16T23:59:33.116Z,17.43
